sensor_id;sensor_type;location;lat;lon;timestamp;temperature;humidity
1381;DHT22;684;48.342;10.096;2024-03-23T00:53:41;12.10;6.10
1381;DHT22;684;48.342;10.096;2024-03-23T00:56:07;12.10;6.10
1381;DHT22;684;48.342;10.096;2024-03-23T00:58:34;12.10;6.10
1381;DHT22;684;48.342;10.096;2024-03-23T01:01:00;12.00;6.10
1381;DHT22;684;48.342;10.096;2024-03-23T01:03:29;12.10;6.20
1381;DHT22;684;48.342;10.096;2024-03-23T01:05:54;12.00;6.10
1381;DHT22;684;48.342;10.096;2024-03-23T01:08:21;12.00;6.10
1381;DHT22;684;48.342;10.096;2024-03-23T01:10:55;12.00;6.20
1381;DHT22;684;48.342;10.096;2024-03-23T01:13:22;11.90;6.40
1381;DHT22;684;48.342;10.096;2024-03-23T01:15:48;11.90;6.30
1381;DHT22;684;48.342;10.096;2024-03-23T01:18:15;11.90;6.50
1381;DHT22;684;48.342;10.096;2024-03-23T01:20:41;11.90;6.60
1381;DHT22;684;48.342;10.096;2024-03-23T01:23:08;11.80;6.60
1381;DHT22;684;48.342;10.096;2024-03-23T01:25:34;11.80;6.80
1381;DHT22;684;48.342;10.096;2024-03-23T01:28:02;11.70;6.90
1381;DHT22;684;48.342;10.096;2024-03-23T01:30:28;11.70;7.10
1381;DHT22;684;48.342;10.096;2024-03-23T01:32:55;11.70;7.20
1381;DHT22;684;48.342;10.096;2024-03-23T01:35:21;11.60;7.20
1381;DHT22;684;48.342;10.096;2024-03-23T01:37:48;11.60;7.30
1381;DHT22;684;48.342;10.096;2024-03-23T01:40:16;11.60;7.40
1381;DHT22;684;48.342;10.096;2024-03-23T01:42:55;11.60;8.20
1381;DHT22;684;48.342;10.096;2024-03-23T01:45:22;11.50;7.80
1381;DHT22;684;48.342;10.096;2024-03-23T01:47:49;11.60;8.00
1381;DHT22;684;48.342;10.096;2024-03-23T01:50:16;11.50;8.10
1381;DHT22;684;48.342;10.096;2024-03-23T01:52:43;11.50;8.00
1381;DHT22;684;48.342;10.096;2024-03-23T01:55:10;11.50;8.00
1381;DHT22;684;48.342;10.096;2024-03-23T01:57:37;11.50;8.10
1381;DHT22;684;48.342;10.096;2024-03-23T02:00:03;11.40;8.20
1381;DHT22;684;48.342;10.096;2024-03-23T02:02:33;11.40;8.40
1381;DHT22;684;48.342;10.096;2024-03-23T02:04:58;11.40;8.30
1381;DHT22;684;48.342;10.096;2024-03-23T02:07:25;11.40;8.50
1381;DHT22;684;48.342;10.096;2024-03-23T02:09:51;11.30;8.60
1381;DHT22;684;48.342;10.096;2024-03-23T02:12:19;11.30;8.70
1381;DHT22;684;48.342;10.096;2024-03-23T02:14:45;11.30;8.80
1381;DHT22;684;48.342;10.096;2024-03-23T02:17:12;11.40;8.80
1381;DHT22;684;48.342;10.096;2024-03-23T02:19:40;11.40;8.80
1381;DHT22;684;48.342;10.096;2024-03-23T02:22:06;11.40;8.90
1381;DHT22;684;48.342;10.096;2024-03-23T02:24:33;11.40;8.90
1381;DHT22;684;48.342;10.096;2024-03-23T02:27:01;11.40;8.90
1381;DHT22;684;48.342;10.096;2024-03-23T02:29:27;11.40;9.00
1381;DHT22;684;48.342;10.096;2024-03-23T02:31:54;11.30;9.10
1381;DHT22;684;48.342;10.096;2024-03-23T02:34:20;11.30;9.30
1381;DHT22;684;48.342;10.096;2024-03-23T02:36:47;11.30;9.30
1381;DHT22;684;48.342;10.096;2024-03-23T02:39:12;11.30;9.40
1381;DHT22;684;48.342;10.096;2024-03-23T02:41:41;11.30;9.50
1381;DHT22;684;48.342;10.096;2024-03-23T02:44:07;11.30;9.60
1381;DHT22;684;48.342;10.096;2024-03-23T02:46:37;11.30;9.60
1381;DHT22;684;48.342;10.096;2024-03-23T02:49:03;11.30;9.60
1381;DHT22;684;48.342;10.096;2024-03-23T02:51:30;11.30;9.80
1381;DHT22;684;48.342;10.096;2024-03-23T02:53:56;11.20;9.80
1381;DHT22;684;48.342;10.096;2024-03-23T02:56:22;11.10;9.80
1381;DHT22;684;48.342;10.096;2024-03-23T02:58:49;11.10;9.90
1381;DHT22;684;48.342;10.096;2024-03-23T03:01:16;11.10;9.90
1381;DHT22;684;48.342;10.096;2024-03-23T03:03:42;11.20;9.70
1381;DHT22;684;48.342;10.096;2024-03-23T03:06:10;11.20;9.80
1381;DHT22;684;48.342;10.096;2024-03-23T03:08:35;11.20;9.70
1381;DHT22;684;48.342;10.096;2024-03-23T03:11:02;11.20;9.80
1381;DHT22;684;48.342;10.096;2024-03-23T03:13:28;11.20;9.90
1381;DHT22;684;48.342;10.096;2024-03-23T03:15:56;11.20;9.90
1381;DHT22;684;48.342;10.096;2024-03-23T03:18:23;11.10;10.00
1381;DHT22;684;48.342;10.096;2024-03-23T03:20:54;11.20;9.90
1381;DHT22;684;48.342;10.096;2024-03-23T03:23:20;11.20;10.00
1381;DHT22;684;48.342;10.096;2024-03-23T03:25:46;11.20;9.90
1381;DHT22;684;48.342;10.096;2024-03-23T03:28:12;11.20;10.00
1381;DHT22;684;48.342;10.096;2024-03-23T03:30:39;11.20;10.00
1381;DHT22;684;48.342;10.096;2024-03-23T03:33:06;11.20;10.00
1381;DHT22;684;48.342;10.096;2024-03-23T03:35:33;11.20;10.00
1381;DHT22;684;48.342;10.096;2024-03-23T03:37:59;11.20;10.10
1381;DHT22;684;48.342;10.096;2024-03-23T03:40:25;11.20;10.00
1381;DHT22;684;48.342;10.096;2024-03-23T03:42:51;11.20;9.90
1381;DHT22;684;48.342;10.096;2024-03-23T03:45:18;11.20;9.90
1381;DHT22;684;48.342;10.096;2024-03-23T03:47:44;11.30;10.10
1381;DHT22;684;48.342;10.096;2024-03-23T03:50:12;11.30;10.10
1381;DHT22;684;48.342;10.096;2024-03-23T03:52:37;11.30;10.00
1381;DHT22;684;48.342;10.096;2024-03-23T03:55:12;11.30;10.10
1381;DHT22;684;48.342;10.096;2024-03-23T03:57:38;11.30;10.70
1381;DHT22;684;48.342;10.096;2024-03-23T04:00:07;11.40;10.00
1381;DHT22;684;48.342;10.096;2024-03-23T04:02:36;11.40;10.10
1381;DHT22;684;48.342;10.096;2024-03-23T04:05:03;11.30;10.30
1381;DHT22;684;48.342;10.096;2024-03-23T04:07:30;11.30;10.20
1381;DHT22;684;48.342;10.096;2024-03-23T04:09:57;11.30;10.30
1381;DHT22;684;48.342;10.096;2024-03-23T04:12:23;11.30;10.40
1381;DHT22;684;48.342;10.096;2024-03-23T04:14:50;11.20;10.40
1381;DHT22;684;48.342;10.096;2024-03-23T04:17:16;11.20;10.50
1381;DHT22;684;48.342;10.096;2024-03-23T04:19:44;11.20;10.60
1381;DHT22;684;48.342;10.096;2024-03-23T04:22:10;11.20;10.70
1381;DHT22;684;48.342;10.096;2024-03-23T04:24:38;11.20;10.60
1381;DHT22;684;48.342;10.096;2024-03-23T04:27:04;11.20;10.60
1381;DHT22;684;48.342;10.096;2024-03-23T04:29:31;11.20;10.60
1381;DHT22;684;48.342;10.096;2024-03-23T04:31:57;11.20;10.70
1381;DHT22;684;48.342;10.096;2024-03-23T04:34:23;11.20;10.60
1381;DHT22;684;48.342;10.096;2024-03-23T04:36:49;11.20;10.40
1381;DHT22;684;48.342;10.096;2024-03-23T04:39:16;11.20;10.50
1381;DHT22;684;48.342;10.096;2024-03-23T04:41:46;11.20;10.40
1381;DHT22;684;48.342;10.096;2024-03-23T04:44:13;11.20;10.50
1381;DHT22;684;48.342;10.096;2024-03-23T04:46:39;11.20;10.40
1381;DHT22;684;48.342;10.096;2024-03-23T04:49:06;11.10;10.60
1381;DHT22;684;48.342;10.096;2024-03-23T04:51:35;11.20;10.60
1381;DHT22;684;48.342;10.096;2024-03-23T04:54:03;11.20;10.60
1381;DHT22;684;48.342;10.096;2024-03-23T04:56:31;11.10;10.80
1381;DHT22;684;48.342;10.096;2024-03-23T04:59:00;11.10;10.80
1381;DHT22;684;48.342;10.096;2024-03-23T05:01:27;11.10;10.90
1381;DHT22;684;48.342;10.096;2024-03-23T05:03:54;11.00;10.90
1381;DHT22;684;48.342;10.096;2024-03-23T05:06:20;11.00;11.00
1381;DHT22;684;48.342;10.096;2024-03-23T05:08:46;11.00;11.00
1381;DHT22;684;48.342;10.096;2024-03-23T05:11:12;10.90;11.00
1381;DHT22;684;48.342;10.096;2024-03-23T05:13:39;11.00;11.10
1381;DHT22;684;48.342;10.096;2024-03-23T05:16:07;10.90;11.20
1381;DHT22;684;48.342;10.096;2024-03-23T05:18:34;11.00;11.20
1381;DHT22;684;48.342;10.096;2024-03-23T05:21:00;11.00;11.20
1381;DHT22;684;48.342;10.096;2024-03-23T05:23:28;11.00;11.20
1381;DHT22;684;48.342;10.096;2024-03-23T05:25:54;11.00;11.20
1381;DHT22;684;48.342;10.096;2024-03-23T05:28:22;11.00;11.40
1381;DHT22;684;48.342;10.096;2024-03-23T05:30:50;11.10;11.30
1381;DHT22;684;48.342;10.096;2024-03-23T05:33:19;11.10;11.40
1381;DHT22;684;48.342;10.096;2024-03-23T05:35:45;11.30;11.40
1381;DHT22;684;48.342;10.096;2024-03-23T05:38:13;11.40;11.30
1381;DHT22;684;48.342;10.096;2024-03-23T05:40:39;11.50;11.20
1381;DHT22;684;48.342;10.096;2024-03-23T05:43:06;11.60;11.00
1381;DHT22;684;48.342;10.096;2024-03-23T05:45:34;11.80;10.60
1381;DHT22;684;48.342;10.096;2024-03-23T05:48:01;12.00;10.30
1381;DHT22;684;48.342;10.096;2024-03-23T05:50:28;12.30;9.70
1381;DHT22;684;48.342;10.096;2024-03-23T05:52:55;12.50;9.20
1381;DHT22;684;48.342;10.096;2024-03-23T05:55:21;12.70;8.90
1381;DHT22;684;48.342;10.096;2024-03-23T05:57:48;13.00;8.20
1381;DHT22;684;48.342;10.096;2024-03-23T06:00:14;13.10;7.90
1381;DHT22;684;48.342;10.096;2024-03-23T06:02:42;13.10;7.90
1381;DHT22;684;48.342;10.096;2024-03-23T06:05:10;13.10;8.00
1381;DHT22;684;48.342;10.096;2024-03-23T06:07:39;13.00;8.10
1381;DHT22;684;48.342;10.096;2024-03-23T06:10:05;13.00;8.50
1381;DHT22;684;48.342;10.096;2024-03-23T06:12:32;12.90;8.60
1381;DHT22;684;48.342;10.096;2024-03-23T06:14:58;12.90;8.80
1381;DHT22;684;48.342;10.096;2024-03-23T06:17:24;12.90;8.80
1381;DHT22;684;48.342;10.096;2024-03-23T06:19:50;12.90;8.80
1381;DHT22;684;48.342;10.096;2024-03-23T06:24:50;12.90;9.10
1381;DHT22;684;48.342;10.096;2024-03-23T06:27:17;13.00;9.20
1381;DHT22;684;48.342;10.096;2024-03-23T06:29:42;13.00;9.20
1381;DHT22;684;48.342;10.096;2024-03-23T06:32:09;12.90;9.30
1381;DHT22;684;48.342;10.096;2024-03-23T06:34:35;13.00;9.30
1381;DHT22;684;48.342;10.096;2024-03-23T06:37:02;12.90;9.50
1381;DHT22;684;48.342;10.096;2024-03-23T06:39:28;12.90;9.60
1381;DHT22;684;48.342;10.096;2024-03-23T06:41:56;12.90;9.90
1381;DHT22;684;48.342;10.096;2024-03-23T06:44:22;12.90;10.40
1381;DHT22;684;48.342;10.096;2024-03-23T06:46:50;12.80;11.70
1381;DHT22;684;48.342;10.096;2024-03-23T06:49:15;12.70;12.10
1381;DHT22;684;48.342;10.096;2024-03-23T06:51:42;12.60;12.30
1381;DHT22;684;48.342;10.096;2024-03-23T06:54:08;12.50;12.90
1381;DHT22;684;48.342;10.096;2024-03-23T06:56:35;12.40;13.50
1381;DHT22;684;48.342;10.096;2024-03-23T06:59:02;12.30;14.10
1381;DHT22;684;48.342;10.096;2024-03-23T07:01:29;12.30;14.60
1381;DHT22;684;48.342;10.096;2024-03-23T07:03:55;12.20;14.70
1381;DHT22;684;48.342;10.096;2024-03-23T07:06:22;12.20;15.30
1381;DHT22;684;48.342;10.096;2024-03-23T07:08:47;12.20;15.30
1381;DHT22;684;48.342;10.096;2024-03-23T07:11:18;12.20;15.10
1381;DHT22;684;48.342;10.096;2024-03-23T07:13:45;12.10;15.10
1381;DHT22;684;48.342;10.096;2024-03-23T07:16:13;12.10;14.80
1381;DHT22;684;48.342;10.096;2024-03-23T07:18:39;12.10;14.90
1381;DHT22;684;48.342;10.096;2024-03-23T07:21:06;12.10;14.70
1381;DHT22;684;48.342;10.096;2024-03-23T07:23:33;12.10;14.60
1381;DHT22;684;48.342;10.096;2024-03-23T07:26:00;12.10;14.50
1381;DHT22;684;48.342;10.096;2024-03-23T07:28:27;12.10;14.30
1381;DHT22;684;48.342;10.096;2024-03-23T07:31:02;12.10;14.20
1381;DHT22;684;48.342;10.096;2024-03-23T07:33:29;12.10;14.50
1381;DHT22;684;48.342;10.096;2024-03-23T07:35:56;12.10;14.10
1381;DHT22;684;48.342;10.096;2024-03-23T07:38:23;12.10;14.30
1381;DHT22;684;48.342;10.096;2024-03-23T07:40:50;12.10;14.20
1381;DHT22;684;48.342;10.096;2024-03-23T07:43:21;12.10;14.10
1381;DHT22;684;48.342;10.096;2024-03-23T07:45:51;12.20;14.50
1381;DHT22;684;48.342;10.096;2024-03-23T07:48:18;12.10;14.40
1381;DHT22;684;48.342;10.096;2024-03-23T07:50:46;12.10;14.30
1381;DHT22;684;48.342;10.096;2024-03-23T07:53:12;12.00;13.70
1381;DHT22;684;48.342;10.096;2024-03-23T07:55:38;12.00;13.00
1381;DHT22;684;48.342;10.096;2024-03-23T07:58:05;12.00;13.50
1381;DHT22;684;48.342;10.096;2024-03-23T08:00:31;11.90;13.70
1381;DHT22;684;48.342;10.096;2024-03-23T08:02:58;11.80;13.50
1381;DHT22;684;48.342;10.096;2024-03-23T08:05:26;11.70;13.70
1381;DHT22;684;48.342;10.096;2024-03-23T08:07:54;11.60;13.40
1381;DHT22;684;48.342;10.096;2024-03-23T08:10:20;11.60;13.10
1381;DHT22;684;48.342;10.096;2024-03-23T08:12:46;11.50;13.20
1381;DHT22;684;48.342;10.096;2024-03-23T08:15:12;11.50;13.30
1381;DHT22;684;48.342;10.096;2024-03-23T08:17:39;11.50;13.30
1381;DHT22;684;48.342;10.096;2024-03-23T08:20:06;11.50;13.20
1381;DHT22;684;48.342;10.096;2024-03-23T08:22:33;11.50;13.20
1381;DHT22;684;48.342;10.096;2024-03-23T08:25:01;11.60;13.30
1381;DHT22;684;48.342;10.096;2024-03-23T08:27:28;11.60;13.10
1381;DHT22;684;48.342;10.096;2024-03-23T08:29:53;11.60;13.00
1381;DHT22;684;48.342;10.096;2024-03-23T08:32:20;11.70;12.00
1381;DHT22;684;48.342;10.096;2024-03-23T08:34:46;11.70;11.80
1381;DHT22;684;48.342;10.096;2024-03-23T08:37:13;11.90;11.40
1381;DHT22;684;48.342;10.096;2024-03-23T08:39:38;12.00;11.10
1381;DHT22;684;48.342;10.096;2024-03-23T08:42:07;12.00;10.60
1381;DHT22;684;48.342;10.096;2024-03-23T08:44:33;12.10;10.50
1381;DHT22;684;48.342;10.096;2024-03-23T08:47:01;12.10;10.00
1381;DHT22;684;48.342;10.096;2024-03-23T08:49:27;12.10;9.10
1381;DHT22;684;48.342;10.096;2024-03-23T08:51:54;12.00;8.20
1381;DHT22;684;48.342;10.096;2024-03-23T08:54:20;12.20;9.30
1381;DHT22;684;48.342;10.096;2024-03-23T08:56:48;12.00;8.70
1381;DHT22;684;48.342;10.096;2024-03-23T08:59:15;12.20;9.10
1381;DHT22;684;48.342;10.096;2024-03-23T09:01:41;12.60;8.40
1381;DHT22;684;48.342;10.096;2024-03-23T09:04:07;12.70;7.50
1381;DHT22;684;48.342;10.096;2024-03-23T09:06:34;13.10;6.50
1381;DHT22;684;48.342;10.096;2024-03-23T09:09:00;13.10;6.10
1381;DHT22;684;48.342;10.096;2024-03-23T09:11:27;13.10;6.20
1381;DHT22;684;48.342;10.096;2024-03-23T09:13:53;13.00;6.10
1381;DHT22;684;48.342;10.096;2024-03-23T09:16:21;12.90;6.40
1381;DHT22;684;48.342;10.096;2024-03-23T09:18:47;12.60;7.70
1381;DHT22;684;48.342;10.096;2024-03-23T09:21:14;12.30;9.10
1381;DHT22;684;48.342;10.096;2024-03-23T09:23:41;12.20;9.50
1381;DHT22;684;48.342;10.096;2024-03-23T09:26:09;12.10;9.10
1381;DHT22;684;48.342;10.096;2024-03-23T09:28:35;12.00;8.10
1381;DHT22;684;48.342;10.096;2024-03-23T09:31:02;12.20;8.20
1381;DHT22;684;48.342;10.096;2024-03-23T09:33:29;12.30;6.90
1381;DHT22;684;48.342;10.096;2024-03-23T09:35:56;12.60;6.60
1381;DHT22;684;48.342;10.096;2024-03-23T09:38:22;13.40;4.90
1381;DHT22;684;48.342;10.096;2024-03-23T09:40:53;15.60;2.70
1381;DHT22;684;48.342;10.096;2024-03-23T09:43:19;19.10;1.00
1381;DHT22;684;48.342;10.096;2024-03-23T09:45:46;21.90;1.00
1381;DHT22;684;48.342;10.096;2024-03-23T09:48:12;23.70;1.00
1381;DHT22;684;48.342;10.096;2024-03-23T09:50:42;24.60;1.00
1381;DHT22;684;48.342;10.096;2024-03-23T09:53:08;25.50;1.00
1381;DHT22;684;48.342;10.096;2024-03-23T09:55:37;25.50;1.00
1381;DHT22;684;48.342;10.096;2024-03-23T09:58:03;26.30;1.00
1381;DHT22;684;48.342;10.096;2024-03-23T10:00:31;25.60;1.00
1381;DHT22;684;48.342;10.096;2024-03-23T10:02:57;25.50;1.00
1381;DHT22;684;48.342;10.096;2024-03-23T10:05:28;24.50;1.00
1381;DHT22;684;48.342;10.096;2024-03-23T10:07:55;23.40;1.00
1381;DHT22;684;48.342;10.096;2024-03-23T10:10:21;23.60;1.00
1381;DHT22;684;48.342;10.096;2024-03-23T10:12:48;24.20;1.00
1381;DHT22;684;48.342;10.096;2024-03-23T10:15:21;23.50;1.00
1381;DHT22;684;48.342;10.096;2024-03-23T10:17:47;23.20;1.00
1381;DHT22;684;48.342;10.096;2024-03-23T10:20:19;23.70;1.00
1381;DHT22;684;48.342;10.096;2024-03-23T10:22:45;23.20;1.00
1381;DHT22;684;48.342;10.096;2024-03-23T10:25:14;22.20;1.00
1381;DHT22;684;48.342;10.096;2024-03-23T10:27:40;21.10;1.00
1381;DHT22;684;48.342;10.096;2024-03-23T10:30:09;20.40;1.00
1381;DHT22;684;48.342;10.096;2024-03-23T10:32:35;20.20;1.00
1381;DHT22;684;48.342;10.096;2024-03-23T10:35:14;19.30;1.00
1381;DHT22;684;48.342;10.096;2024-03-23T10:37:41;18.20;1.00
1381;DHT22;684;48.342;10.096;2024-03-23T10:40:10;17.40;1.00
1381;DHT22;684;48.342;10.096;2024-03-23T10:42:38;16.70;1.00
1381;DHT22;684;48.342;10.096;2024-03-23T10:45:06;16.10;1.00
1381;DHT22;684;48.342;10.096;2024-03-23T10:47:36;15.50;1.00
1381;DHT22;684;48.342;10.096;2024-03-23T10:50:04;15.00;1.00
1381;DHT22;684;48.342;10.096;2024-03-23T10:52:31;14.70;1.00
1381;DHT22;684;48.342;10.096;2024-03-23T10:54:58;15.10;1.00
1381;DHT22;684;48.342;10.096;2024-03-23T10:57:29;15.10;1.00
1381;DHT22;684;48.342;10.096;2024-03-23T10:59:59;15.90;1.00
1381;DHT22;684;48.342;10.096;2024-03-23T11:02:27;16.60;1.00
1381;DHT22;684;48.342;10.096;2024-03-23T11:04:55;16.20;1.00
1381;DHT22;684;48.342;10.096;2024-03-23T11:07:29;15.80;1.00
1381;DHT22;684;48.342;10.096;2024-03-23T11:09:57;15.40;1.00
1381;DHT22;684;48.342;10.096;2024-03-23T11:12:30;15.10;1.00
1381;DHT22;684;48.342;10.096;2024-03-23T11:15:02;14.80;1.00
1381;DHT22;684;48.342;10.096;2024-03-23T11:17:29;14.80;1.00
1381;DHT22;684;48.342;10.096;2024-03-23T11:19:57;14.90;1.00
1381;DHT22;684;48.342;10.096;2024-03-23T11:22:40;15.10;1.00
1381;DHT22;684;48.342;10.096;2024-03-23T11:25:18;15.30;1.00
1381;DHT22;684;48.342;10.096;2024-03-23T11:27:46;14.90;1.00
1381;DHT22;684;48.342;10.096;2024-03-23T11:30:16;14.70;1.00
1381;DHT22;684;48.342;10.096;2024-03-23T11:32:43;14.70;1.00
1381;DHT22;684;48.342;10.096;2024-03-23T11:35:10;15.10;1.00
1381;DHT22;684;48.342;10.096;2024-03-23T11:37:37;15.00;1.00
1381;DHT22;684;48.342;10.096;2024-03-23T11:40:20;14.70;1.00
1381;DHT22;684;48.342;10.096;2024-03-23T11:42:46;14.60;1.00
1381;DHT22;684;48.342;10.096;2024-03-23T11:45:15;14.50;1.00
1381;DHT22;684;48.342;10.096;2024-03-23T11:47:43;14.30;1.00
1381;DHT22;684;48.342;10.096;2024-03-23T11:50:19;14.20;1.00
1381;DHT22;684;48.342;10.096;2024-03-23T11:52:45;13.90;1.00
1381;DHT22;684;48.342;10.096;2024-03-23T11:55:12;13.80;1.00
1381;DHT22;684;48.342;10.096;2024-03-23T11:57:37;13.70;1.00
1381;DHT22;684;48.342;10.096;2024-03-23T12:00:24;13.80;1.00
1381;DHT22;684;48.342;10.096;2024-03-23T12:02:50;14.00;1.00
1381;DHT22;684;48.342;10.096;2024-03-23T12:05:17;14.10;1.00
1381;DHT22;684;48.342;10.096;2024-03-23T12:07:43;14.10;1.00
1381;DHT22;684;48.342;10.096;2024-03-23T12:10:10;14.20;1.00
1381;DHT22;684;48.342;10.096;2024-03-23T12:12:36;14.10;1.00
1381;DHT22;684;48.342;10.096;2024-03-23T12:15:03;13.80;1.00
1381;DHT22;684;48.342;10.096;2024-03-23T12:17:32;13.40;1.00
1381;DHT22;684;48.342;10.096;2024-03-23T12:20:00;13.20;1.00
1381;DHT22;684;48.342;10.096;2024-03-23T12:22:26;13.10;1.00
1381;DHT22;684;48.342;10.096;2024-03-23T12:24:55;13.10;1.00
1381;DHT22;684;48.342;10.096;2024-03-23T12:27:20;13.10;1.00
1381;DHT22;684;48.342;10.096;2024-03-23T12:29:47;13.20;1.00
1381;DHT22;684;48.342;10.096;2024-03-23T12:32:13;13.20;1.00
1381;DHT22;684;48.342;10.096;2024-03-23T12:34:43;13.00;1.00
1381;DHT22;684;48.342;10.096;2024-03-23T12:37:08;13.00;1.00
1381;DHT22;684;48.342;10.096;2024-03-23T12:39:36;13.00;1.00
1381;DHT22;684;48.342;10.096;2024-03-23T12:42:02;12.90;1.00
1381;DHT22;684;48.342;10.096;2024-03-23T12:44:29;12.80;1.00
1381;DHT22;684;48.342;10.096;2024-03-23T12:46:55;12.60;1.00
1381;DHT22;684;48.342;10.096;2024-03-23T12:49:22;12.50;1.00
1381;DHT22;684;48.342;10.096;2024-03-23T12:51:54;12.50;1.00
1381;DHT22;684;48.342;10.096;2024-03-23T12:54:22;12.40;1.00
1381;DHT22;684;48.342;10.096;2024-03-23T12:56:48;12.50;1.00
1381;DHT22;684;48.342;10.096;2024-03-23T12:59:15;12.50;1.00
1381;DHT22;684;48.342;10.096;2024-03-23T13:01:42;12.70;1.00
1381;DHT22;684;48.342;10.096;2024-03-23T13:04:09;12.70;1.00
1381;DHT22;684;48.342;10.096;2024-03-23T13:06:35;12.70;1.00
1381;DHT22;684;48.342;10.096;2024-03-23T13:09:03;12.70;1.00
1381;DHT22;684;48.342;10.096;2024-03-23T13:11:29;12.70;1.00
1381;DHT22;684;48.342;10.096;2024-03-23T13:13:56;12.70;1.00
1381;DHT22;684;48.342;10.096;2024-03-23T13:16:22;12.60;1.00
1381;DHT22;684;48.342;10.096;2024-03-23T13:18:49;12.70;1.00
1381;DHT22;684;48.342;10.096;2024-03-23T13:21:15;12.60;1.00
1381;DHT22;684;48.342;10.096;2024-03-23T13:23:42;12.50;1.00
1381;DHT22;684;48.342;10.096;2024-03-23T13:26:10;12.50;1.00
1381;DHT22;684;48.342;10.096;2024-03-23T13:28:37;12.40;1.00
1381;DHT22;684;48.342;10.096;2024-03-23T13:31:03;12.30;1.00
1381;DHT22;684;48.342;10.096;2024-03-23T13:33:30;12.30;1.00
1381;DHT22;684;48.342;10.096;2024-03-23T13:35:57;12.20;1.00
1381;DHT22;684;48.342;10.096;2024-03-23T13:38:25;12.10;1.00
1381;DHT22;684;48.342;10.096;2024-03-23T13:40:52;11.90;1.00
1381;DHT22;684;48.342;10.096;2024-03-23T13:43:20;12.00;1.00
1381;DHT22;684;48.342;10.096;2024-03-23T13:45:47;12.20;1.00
1381;DHT22;684;48.342;10.096;2024-03-23T13:48:15;12.10;1.00
1381;DHT22;684;48.342;10.096;2024-03-23T13:50:41;12.10;1.00
1381;DHT22;684;48.342;10.096;2024-03-23T13:53:07;11.90;1.00
1381;DHT22;684;48.342;10.096;2024-03-23T13:55:34;11.90;1.00
1381;DHT22;684;48.342;10.096;2024-03-23T13:58:01;11.70;1.00
1381;DHT22;684;48.342;10.096;2024-03-23T14:00:28;11.50;1.00
1381;DHT22;684;48.342;10.096;2024-03-23T14:02:55;11.30;1.00
1381;DHT22;684;48.342;10.096;2024-03-23T14:05:20;11.20;1.00
1381;DHT22;684;48.342;10.096;2024-03-23T14:07:47;11.20;2.20
1381;DHT22;684;48.342;10.096;2024-03-23T14:10:14;11.20;2.10
1381;DHT22;684;48.342;10.096;2024-03-23T14:12:41;11.20;1.90
1381;DHT22;684;48.342;10.096;2024-03-23T14:15:07;11.30;1.90
1381;DHT22;684;48.342;10.096;2024-03-23T14:17:36;11.40;1.60
1381;DHT22;684;48.342;10.096;2024-03-23T14:20:01;11.40;1.00
1381;DHT22;684;48.342;10.096;2024-03-23T14:22:30;11.40;1.00
1381;DHT22;684;48.342;10.096;2024-03-23T14:24:56;11.40;1.00
1381;DHT22;684;48.342;10.096;2024-03-23T14:27:24;11.50;1.00
1381;DHT22;684;48.342;10.096;2024-03-23T14:29:50;11.60;1.00
1381;DHT22;684;48.342;10.096;2024-03-23T14:32:18;11.60;1.00
1381;DHT22;684;48.342;10.096;2024-03-23T14:34:45;11.60;1.00
1381;DHT22;684;48.342;10.096;2024-03-23T14:37:12;11.50;1.00
1381;DHT22;684;48.342;10.096;2024-03-23T14:39:38;11.50;1.00
1381;DHT22;684;48.342;10.096;2024-03-23T14:42:07;11.40;1.00
1381;DHT22;684;48.342;10.096;2024-03-23T14:44:34;11.40;1.00
1381;DHT22;684;48.342;10.096;2024-03-23T14:47:00;11.40;1.00
1381;DHT22;684;48.342;10.096;2024-03-23T14:49:27;11.30;1.00
1381;DHT22;684;48.342;10.096;2024-03-23T14:51:54;11.20;1.00
1381;DHT22;684;48.342;10.096;2024-03-23T14:54:21;11.10;1.00
1381;DHT22;684;48.342;10.096;2024-03-23T14:56:47;11.10;1.00
1381;DHT22;684;48.342;10.096;2024-03-23T14:59:14;11.00;1.00
1381;DHT22;684;48.342;10.096;2024-03-23T15:01:39;11.00;1.00
1381;DHT22;684;48.342;10.096;2024-03-23T15:04:07;11.10;1.00
1381;DHT22;684;48.342;10.096;2024-03-23T15:06:33;11.00;1.00
1381;DHT22;684;48.342;10.096;2024-03-23T15:09:02;11.00;1.00
1381;DHT22;684;48.342;10.096;2024-03-23T15:11:32;11.00;1.00
1381;DHT22;684;48.342;10.096;2024-03-23T15:13:59;11.20;1.00
1381;DHT22;684;48.342;10.096;2024-03-23T15:16:25;11.20;1.00
1381;DHT22;684;48.342;10.096;2024-03-23T15:18:51;11.30;1.00
1381;DHT22;684;48.342;10.096;2024-03-23T15:21:17;11.30;1.00
1381;DHT22;684;48.342;10.096;2024-03-23T15:23:46;11.30;1.00
1381;DHT22;684;48.342;10.096;2024-03-23T15:26:13;11.20;1.00
1381;DHT22;684;48.342;10.096;2024-03-23T15:28:41;11.20;1.00
1381;DHT22;684;48.342;10.096;2024-03-23T15:31:09;11.20;1.00
1381;DHT22;684;48.342;10.096;2024-03-23T15:33:36;11.30;1.00
1381;DHT22;684;48.342;10.096;2024-03-23T15:36:03;11.30;1.00
1381;DHT22;684;48.342;10.096;2024-03-23T15:38:31;11.20;1.00
1381;DHT22;684;48.342;10.096;2024-03-23T15:40:58;11.20;1.00
1381;DHT22;684;48.342;10.096;2024-03-23T15:43:26;11.20;1.00
1381;DHT22;684;48.342;10.096;2024-03-23T15:45:55;11.20;1.00
1381;DHT22;684;48.342;10.096;2024-03-23T15:48:22;11.10;1.00
1381;DHT22;684;48.342;10.096;2024-03-23T15:50:51;11.10;1.00
1381;DHT22;684;48.342;10.096;2024-03-23T15:53:19;11.00;1.00
1381;DHT22;684;48.342;10.096;2024-03-23T15:55:45;11.10;1.00
1381;DHT22;684;48.342;10.096;2024-03-23T15:58:12;11.10;1.00
1381;DHT22;684;48.342;10.096;2024-03-23T16:00:39;11.10;1.00
1381;DHT22;684;48.342;10.096;2024-03-23T16:03:06;11.00;1.00
1381;DHT22;684;48.342;10.096;2024-03-23T16:05:32;10.90;1.00
1381;DHT22;684;48.342;10.096;2024-03-23T16:07:59;10.90;1.00
1381;DHT22;684;48.342;10.096;2024-03-23T16:10:25;10.80;1.30
1381;DHT22;684;48.342;10.096;2024-03-23T16:12:52;10.80;1.40
1381;DHT22;684;48.342;10.096;2024-03-23T16:15:18;10.70;2.50
1381;DHT22;684;48.342;10.096;2024-03-23T16:17:46;10.40;3.80
1381;DHT22;684;48.342;10.096;2024-03-23T16:20:12;10.20;4.00
1381;DHT22;684;48.342;10.096;2024-03-23T16:22:39;10.00;4.70
1381;DHT22;684;48.342;10.096;2024-03-23T16:25:06;9.80;5.80
1381;DHT22;684;48.342;10.096;2024-03-23T16:27:33;9.60;6.50
1381;DHT22;684;48.342;10.096;2024-03-23T16:29:59;9.50;7.40
1381;DHT22;684;48.342;10.096;2024-03-23T16:32:25;9.30;7.60
1381;DHT22;684;48.342;10.096;2024-03-23T16:34:54;9.10;7.70
1381;DHT22;684;48.342;10.096;2024-03-23T16:37:21;8.90;7.80
1381;DHT22;684;48.342;10.096;2024-03-23T16:39:46;8.80;8.00
1381;DHT22;684;48.342;10.096;2024-03-23T16:42:13;8.70;8.10
1381;DHT22;684;48.342;10.096;2024-03-23T16:44:39;8.70;8.40
1381;DHT22;684;48.342;10.096;2024-03-23T16:47:07;8.80;8.30
1381;DHT22;684;48.342;10.096;2024-03-23T16:49:34;8.90;9.00
1381;DHT22;684;48.342;10.096;2024-03-23T16:52:02;8.80;9.20
1381;DHT22;684;48.342;10.096;2024-03-23T16:54:28;8.80;9.40
1381;DHT22;684;48.342;10.096;2024-03-23T16:56:55;8.70;9.60
1381;DHT22;684;48.342;10.096;2024-03-23T16:59:21;8.70;10.00
1381;DHT22;684;48.342;10.096;2024-03-23T17:01:47;8.50;9.80
1381;DHT22;684;48.342;10.096;2024-03-23T17:04:13;8.50;9.80
1381;DHT22;684;48.342;10.096;2024-03-23T17:06:40;8.50;9.90
1381;DHT22;684;48.342;10.096;2024-03-23T17:09:07;8.40;9.10